sensor_id;sensor_type;location;lat;lon;timestamp;temperature;humidity
6252;DHT22;3159;52.414;9.784;2023-11-19T00:00:51;6.60;99.90
6252;DHT22;3159;52.414;9.784;2023-11-19T00:03:18;6.50;99.90
6252;DHT22;3159;52.414;9.784;2023-11-19T00:05:45;6.70;99.90
6252;DHT22;3159;52.414;9.784;2023-11-19T00:08:12;6.60;99.90
6252;DHT22;3159;52.414;9.784;2023-11-19T00:10:39;6.60;99.90
6252;DHT22;3159;52.414;9.784;2023-11-19T00:13:06;6.70;99.90
6252;DHT22;3159;52.414;9.784;2023-11-19T00:15:33;6.60;99.90
6252;DHT22;3159;52.414;9.784;2023-11-19T00:18:01;6.60;99.90
6252;DHT22;3159;52.414;9.784;2023-11-19T00:20:30;6.50;99.90
6252;DHT22;3159;52.414;9.784;2023-11-19T00:22:57;6.70;99.90
6252;DHT22;3159;52.414;9.784;2023-11-19T00:25:23;6.70;99.90
6252;DHT22;3159;52.414;9.784;2023-11-19T00:27:51;6.70;99.90
6252;DHT22;3159;52.414;9.784;2023-11-19T00:30:19;6.80;99.90
6252;DHT22;3159;52.414;9.784;2023-11-19T00:32:46;6.80;99.90
6252;DHT22;3159;52.414;9.784;2023-11-19T00:35:14;6.90;99.90
6252;DHT22;3159;52.414;9.784;2023-11-19T00:37:41;6.90;99.90
6252;DHT22;3159;52.414;9.784;2023-11-19T00:40:11;6.90;99.90
6252;DHT22;3159;52.414;9.784;2023-11-19T00:42:38;6.90;99.90
6252;DHT22;3159;52.414;9.784;2023-11-19T00:45:05;6.90;99.90
6252;DHT22;3159;52.414;9.784;2023-11-19T00:47:35;6.90;99.90
6252;DHT22;3159;52.414;9.784;2023-11-19T00:50:02;6.90;99.90
6252;DHT22;3159;52.414;9.784;2023-11-19T00:52:31;7.00;99.90
6252;DHT22;3159;52.414;9.784;2023-11-19T00:54:57;7.00;99.90
6252;DHT22;3159;52.414;9.784;2023-11-19T00:57:24;7.00;99.90
6252;DHT22;3159;52.414;9.784;2023-11-19T00:59:52;7.00;99.90
6252;DHT22;3159;52.414;9.784;2023-11-19T01:02:19;7.00;99.90
6252;DHT22;3159;52.414;9.784;2023-11-19T01:04:46;7.00;99.90
6252;DHT22;3159;52.414;9.784;2023-11-19T01:07:13;7.10;99.90
6252;DHT22;3159;52.414;9.784;2023-11-19T01:09:41;7.10;99.90
6252;DHT22;3159;52.414;9.784;2023-11-19T01:12:08;7.10;99.90
6252;DHT22;3159;52.414;9.784;2023-11-19T01:14:36;7.20;99.90
6252;DHT22;3159;52.414;9.784;2023-11-19T01:17:03;7.20;99.90
6252;DHT22;3159;52.414;9.784;2023-11-19T01:19:30;7.20;99.90
6252;DHT22;3159;52.414;9.784;2023-11-19T01:21:57;7.30;99.90
6252;DHT22;3159;52.414;9.784;2023-11-19T01:24:23;7.30;99.90
6252;DHT22;3159;52.414;9.784;2023-11-19T01:26:55;7.30;99.90
6252;DHT22;3159;52.414;9.784;2023-11-19T01:29:23;7.30;99.90
6252;DHT22;3159;52.414;9.784;2023-11-19T01:31:50;7.40;99.90
6252;DHT22;3159;52.414;9.784;2023-11-19T01:34:18;7.40;99.90
6252;DHT22;3159;52.414;9.784;2023-11-19T01:36:46;7.50;99.90
6252;DHT22;3159;52.414;9.784;2023-11-19T01:39:14;7.60;99.90
6252;DHT22;3159;52.414;9.784;2023-11-19T01:41:42;7.60;99.90
6252;DHT22;3159;52.414;9.784;2023-11-19T01:44:10;7.50;99.90
6252;DHT22;3159;52.414;9.784;2023-11-19T01:46:40;7.60;99.90
6252;DHT22;3159;52.414;9.784;2023-11-19T01:49:07;7.60;99.90
6252;DHT22;3159;52.414;9.784;2023-11-19T01:51:35;7.70;99.90
6252;DHT22;3159;52.414;9.784;2023-11-19T01:54:02;7.70;99.90
6252;DHT22;3159;52.414;9.784;2023-11-19T01:56:30;7.80;99.90
6252;DHT22;3159;52.414;9.784;2023-11-19T01:58:58;7.70;99.90
6252;DHT22;3159;52.414;9.784;2023-11-19T02:01:27;7.70;99.90
6252;DHT22;3159;52.414;9.784;2023-11-19T02:03:55;7.80;99.90
6252;DHT22;3159;52.414;9.784;2023-11-19T02:06:24;7.80;99.90
6252;DHT22;3159;52.414;9.784;2023-11-19T02:08:52;7.70;99.90
6252;DHT22;3159;52.414;9.784;2023-11-19T02:11:19;7.80;99.90
6252;DHT22;3159;52.414;9.784;2023-11-19T02:13:46;7.90;99.90
6252;DHT22;3159;52.414;9.784;2023-11-19T02:16:12;7.90;99.90
6252;DHT22;3159;52.414;9.784;2023-11-19T02:18:41;7.90;99.90
6252;DHT22;3159;52.414;9.784;2023-11-19T02:21:08;8.00;99.90
6252;DHT22;3159;52.414;9.784;2023-11-19T02:23:36;8.00;99.90
6252;DHT22;3159;52.414;9.784;2023-11-19T02:26:10;8.00;99.90
6252;DHT22;3159;52.414;9.784;2023-11-19T02:28:41;8.00;99.90
6252;DHT22;3159;52.414;9.784;2023-11-19T02:31:08;8.10;99.90
6252;DHT22;3159;52.414;9.784;2023-11-19T02:33:36;8.10;99.90
6252;DHT22;3159;52.414;9.784;2023-11-19T02:36:03;8.20;99.90
6252;DHT22;3159;52.414;9.784;2023-11-19T02:38:30;8.20;99.90
6252;DHT22;3159;52.414;9.784;2023-11-19T02:40:57;8.30;99.90
6252;DHT22;3159;52.414;9.784;2023-11-19T02:43:24;8.30;99.90
6252;DHT22;3159;52.414;9.784;2023-11-19T02:45:52;8.30;99.90
6252;DHT22;3159;52.414;9.784;2023-11-19T02:48:21;8.30;99.90
6252;DHT22;3159;52.414;9.784;2023-11-19T02:50:48;8.30;99.90
6252;DHT22;3159;52.414;9.784;2023-11-19T02:53:14;8.40;99.90
6252;DHT22;3159;52.414;9.784;2023-11-19T02:55:42;8.20;99.90
6252;DHT22;3159;52.414;9.784;2023-11-19T02:58:13;8.30;99.90
6252;DHT22;3159;52.414;9.784;2023-11-19T03:00:49;8.30;99.90
6252;DHT22;3159;52.414;9.784;2023-11-19T03:03:24;8.30;99.90
6252;DHT22;3159;52.414;9.784;2023-11-19T03:05:54;8.40;99.90
6252;DHT22;3159;52.414;9.784;2023-11-19T03:08:21;8.50;99.90
6252;DHT22;3159;52.414;9.784;2023-11-19T03:10:48;8.40;99.90
6252;DHT22;3159;52.414;9.784;2023-11-19T03:13:15;8.40;99.90
6252;DHT22;3159;52.414;9.784;2023-11-19T03:15:42;8.50;99.90
6252;DHT22;3159;52.414;9.784;2023-11-19T03:18:09;8.50;99.90
6252;DHT22;3159;52.414;9.784;2023-11-19T03:20:37;8.60;99.90
6252;DHT22;3159;52.414;9.784;2023-11-19T03:23:04;8.50;99.90
6252;DHT22;3159;52.414;9.784;2023-11-19T03:25:31;8.60;99.90
6252;DHT22;3159;52.414;9.784;2023-11-19T03:28:00;8.60;99.90
6252;DHT22;3159;52.414;9.784;2023-11-19T03:30:28;8.60;99.90
6252;DHT22;3159;52.414;9.784;2023-11-19T03:32:55;8.60;99.90
6252;DHT22;3159;52.414;9.784;2023-11-19T03:35:22;8.70;99.90
6252;DHT22;3159;52.414;9.784;2023-11-19T03:37:51;8.70;99.90
6252;DHT22;3159;52.414;9.784;2023-11-19T03:40:18;8.70;99.90
6252;DHT22;3159;52.414;9.784;2023-11-19T03:42:45;8.80;99.90
6252;DHT22;3159;52.414;9.784;2023-11-19T03:45:12;8.80;99.90
6252;DHT22;3159;52.414;9.784;2023-11-19T03:47:40;8.80;99.90
6252;DHT22;3159;52.414;9.784;2023-11-19T03:50:07;8.90;99.90
6252;DHT22;3159;52.414;9.784;2023-11-19T03:52:34;8.90;99.90
6252;DHT22;3159;52.414;9.784;2023-11-19T03:55:03;8.90;99.90
6252;DHT22;3159;52.414;9.784;2023-11-19T03:57:30;9.00;99.90
6252;DHT22;3159;52.414;9.784;2023-11-19T03:59:57;9.00;99.90
6252;DHT22;3159;52.414;9.784;2023-11-19T04:02:25;9.10;99.90
6252;DHT22;3159;52.414;9.784;2023-11-19T04:04:53;9.10;99.90
6252;DHT22;3159;52.414;9.784;2023-11-19T04:07:21;9.10;99.90
6252;DHT22;3159;52.414;9.784;2023-11-19T04:09:47;9.20;99.90
6252;DHT22;3159;52.414;9.784;2023-11-19T04:12:16;9.20;99.90
6252;DHT22;3159;52.414;9.784;2023-11-19T04:14:42;9.20;99.90
6252;DHT22;3159;52.414;9.784;2023-11-19T04:17:09;9.20;99.90
6252;DHT22;3159;52.414;9.784;2023-11-19T04:19:36;9.20;99.90
6252;DHT22;3159;52.414;9.784;2023-11-19T04:22:03;9.30;99.90
6252;DHT22;3159;52.414;9.784;2023-11-19T04:24:30;9.30;99.90
6252;DHT22;3159;52.414;9.784;2023-11-19T04:26:57;9.30;99.90
6252;DHT22;3159;52.414;9.784;2023-11-19T04:29:25;9.40;99.90
6252;DHT22;3159;52.414;9.784;2023-11-19T04:31:52;9.50;99.90
6252;DHT22;3159;52.414;9.784;2023-11-19T04:34:18;9.40;99.90
6252;DHT22;3159;52.414;9.784;2023-11-19T04:36:45;9.50;99.90
6252;DHT22;3159;52.414;9.784;2023-11-19T04:39:12;9.50;99.90
6252;DHT22;3159;52.414;9.784;2023-11-19T04:41:47;9.50;99.90
6252;DHT22;3159;52.414;9.784;2023-11-19T04:44:14;9.60;99.90
6252;DHT22;3159;52.414;9.784;2023-11-19T04:46:43;9.60;99.90
6252;DHT22;3159;52.414;9.784;2023-11-19T04:49:11;9.60;99.90
6252;DHT22;3159;52.414;9.784;2023-11-19T04:51:39;9.70;99.90
6252;DHT22;3159;52.414;9.784;2023-11-19T04:54:06;9.70;99.90
6252;DHT22;3159;52.414;9.784;2023-11-19T04:56:34;9.80;99.90
6252;DHT22;3159;52.414;9.784;2023-11-19T04:59:00;9.70;99.90
6252;DHT22;3159;52.414;9.784;2023-11-19T05:01:27;9.80;99.90
6252;DHT22;3159;52.414;9.784;2023-11-19T05:03:56;9.80;99.90
6252;DHT22;3159;52.414;9.784;2023-11-19T05:06:26;9.90;99.90
6252;DHT22;3159;52.414;9.784;2023-11-19T05:08:53;9.90;99.90
6252;DHT22;3159;52.414;9.784;2023-11-19T05:11:20;9.90;99.90
6252;DHT22;3159;52.414;9.784;2023-11-19T05:13:47;9.90;99.90
6252;DHT22;3159;52.414;9.784;2023-11-19T05:16:14;10.00;99.90
6252;DHT22;3159;52.414;9.784;2023-11-19T05:18:41;10.00;99.90
6252;DHT22;3159;52.414;9.784;2023-11-19T05:21:09;10.10;99.90
6252;DHT22;3159;52.414;9.784;2023-11-19T05:23:36;10.10;99.90
6252;DHT22;3159;52.414;9.784;2023-11-19T05:26:03;10.20;99.90
6252;DHT22;3159;52.414;9.784;2023-11-19T05:28:30;10.20;99.90
6252;DHT22;3159;52.414;9.784;2023-11-19T05:30:57;10.10;99.90
6252;DHT22;3159;52.414;9.784;2023-11-19T05:33:24;10.20;99.90
6252;DHT22;3159;52.414;9.784;2023-11-19T05:35:51;10.20;99.90
6252;DHT22;3159;52.414;9.784;2023-11-19T05:38:19;10.30;99.90
6252;DHT22;3159;52.414;9.784;2023-11-19T05:40:46;10.30;99.90
6252;DHT22;3159;52.414;9.784;2023-11-19T05:43:14;10.30;99.90
6252;DHT22;3159;52.414;9.784;2023-11-19T05:45:42;10.40;99.90
6252;DHT22;3159;52.414;9.784;2023-11-19T05:48:09;10.40;99.90
6252;DHT22;3159;52.414;9.784;2023-11-19T05:50:36;10.40;99.90
6252;DHT22;3159;52.414;9.784;2023-11-19T05:53:03;10.40;99.90
6252;DHT22;3159;52.414;9.784;2023-11-19T05:55:33;10.40;99.90
6252;DHT22;3159;52.414;9.784;2023-11-19T05:58:01;10.40;99.90
6252;DHT22;3159;52.414;9.784;2023-11-19T06:00:29;10.50;99.90
6252;DHT22;3159;52.414;9.784;2023-11-19T06:02:56;10.50;99.90
6252;DHT22;3159;52.414;9.784;2023-11-19T06:05:23;10.60;99.90
6252;DHT22;3159;52.414;9.784;2023-11-19T06:07:50;10.60;99.90
6252;DHT22;3159;52.414;9.784;2023-11-19T06:10:17;10.70;99.90
6252;DHT22;3159;52.414;9.784;2023-11-19T06:12:46;10.70;99.90
6252;DHT22;3159;52.414;9.784;2023-11-19T06:15:13;10.80;99.90
6252;DHT22;3159;52.414;9.784;2023-11-19T06:17:40;10.80;99.90
6252;DHT22;3159;52.414;9.784;2023-11-19T06:20:07;10.90;99.90
6252;DHT22;3159;52.414;9.784;2023-11-19T06:22:35;11.00;99.90
6252;DHT22;3159;52.414;9.784;2023-11-19T06:25:02;11.00;99.90
6252;DHT22;3159;52.414;9.784;2023-11-19T06:27:32;11.00;99.90
6252;DHT22;3159;52.414;9.784;2023-11-19T06:30:01;11.00;99.90
6252;DHT22;3159;52.414;9.784;2023-11-19T06:32:27;11.10;99.90
6252;DHT22;3159;52.414;9.784;2023-11-19T06:34:55;11.10;99.90
6252;DHT22;3159;52.414;9.784;2023-11-19T06:37:22;11.10;99.90
6252;DHT22;3159;52.414;9.784;2023-11-19T06:39:49;11.20;99.90
6252;DHT22;3159;52.414;9.784;2023-11-19T06:42:16;11.10;99.90
6252;DHT22;3159;52.414;9.784;2023-11-19T06:44:43;11.20;99.90
6252;DHT22;3159;52.414;9.784;2023-11-19T06:47:11;11.20;99.90
6252;DHT22;3159;52.414;9.784;2023-11-19T06:49:38;11.20;99.90
6252;DHT22;3159;52.414;9.784;2023-11-19T06:52:05;11.30;99.90
6252;DHT22;3159;52.414;9.784;2023-11-19T06:54:32;11.30;99.90
6252;DHT22;3159;52.414;9.784;2023-11-19T06:56:58;11.40;99.90
6252;DHT22;3159;52.414;9.784;2023-11-19T06:59:25;11.40;99.90
6252;DHT22;3159;52.414;9.784;2023-11-19T07:01:52;11.50;99.90
6252;DHT22;3159;52.414;9.784;2023-11-19T07:04:20;11.50;99.90
6252;DHT22;3159;52.414;9.784;2023-11-19T07:06:47;11.60;99.90
6252;DHT22;3159;52.414;9.784;2023-11-19T07:09:14;11.60;99.90
6252;DHT22;3159;52.414;9.784;2023-11-19T07:11:41;11.50;99.90
6252;DHT22;3159;52.414;9.784;2023-11-19T07:14:09;11.50;99.90
6252;DHT22;3159;52.414;9.784;2023-11-19T07:16:37;11.50;99.90
6252;DHT22;3159;52.414;9.784;2023-11-19T07:19:04;11.50;99.90
6252;DHT22;3159;52.414;9.784;2023-11-19T07:21:33;11.60;99.90
6252;DHT22;3159;52.414;9.784;2023-11-19T07:23:59;11.60;99.90
6252;DHT22;3159;52.414;9.784;2023-11-19T07:26:27;11.60;99.90
6252;DHT22;3159;52.414;9.784;2023-11-19T07:28:53;11.70;99.90
6252;DHT22;3159;52.414;9.784;2023-11-19T07:31:21;11.70;99.90
6252;DHT22;3159;52.414;9.784;2023-11-19T07:33:49;11.70;99.90
6252;DHT22;3159;52.414;9.784;2023-11-19T07:36:16;11.70;99.90
6252;DHT22;3159;52.414;9.784;2023-11-19T07:38:45;11.70;99.90
6252;DHT22;3159;52.414;9.784;2023-11-19T07:41:13;11.70;99.90
6252;DHT22;3159;52.414;9.784;2023-11-19T07:43:41;11.70;99.90
6252;DHT22;3159;52.414;9.784;2023-11-19T07:46:11;11.70;99.90
6252;DHT22;3159;52.414;9.784;2023-11-19T07:48:38;11.70;99.90
6252;DHT22;3159;52.414;9.784;2023-11-19T07:51:05;11.70;99.90
6252;DHT22;3159;52.414;9.784;2023-11-19T07:53:32;11.70;99.90
6252;DHT22;3159;52.414;9.784;2023-11-19T07:56:01;11.60;99.90
6252;DHT22;3159;52.414;9.784;2023-11-19T07:58:27;11.60;99.90
6252;DHT22;3159;52.414;9.784;2023-11-19T08:00:54;11.60;99.90
6252;DHT22;3159;52.414;9.784;2023-11-19T08:03:21;11.60;99.90
6252;DHT22;3159;52.414;9.784;2023-11-19T08:05:48;11.60;99.90
6252;DHT22;3159;52.414;9.784;2023-11-19T08:08:15;11.60;99.90
6252;DHT22;3159;52.414;9.784;2023-11-19T08:10:42;11.60;99.90
6252;DHT22;3159;52.414;9.784;2023-11-19T08:13:11;11.70;99.90
6252;DHT22;3159;52.414;9.784;2023-11-19T08:15:38;11.60;99.90
6252;DHT22;3159;52.414;9.784;2023-11-19T08:18:05;11.70;99.90
6252;DHT22;3159;52.414;9.784;2023-11-19T08:20:32;11.70;99.90
6252;DHT22;3159;52.414;9.784;2023-11-19T08:22:59;11.80;99.90
6252;DHT22;3159;52.414;9.784;2023-11-19T08:25:26;11.80;99.90
6252;DHT22;3159;52.414;9.784;2023-11-19T08:27:53;11.70;99.90
6252;DHT22;3159;52.414;9.784;2023-11-19T08:30:21;11.80;99.90
6252;DHT22;3159;52.414;9.784;2023-11-19T08:32:48;11.80;99.90
6252;DHT22;3159;52.414;9.784;2023-11-19T08:35:15;11.80;99.90
6252;DHT22;3159;52.414;9.784;2023-11-19T08:37:42;11.80;99.90
6252;DHT22;3159;52.414;9.784;2023-11-19T08:40:11;11.80;99.90
6252;DHT22;3159;52.414;9.784;2023-11-19T08:42:38;11.70;99.90
6252;DHT22;3159;52.414;9.784;2023-11-19T08:45:06;11.70;99.90
6252;DHT22;3159;52.414;9.784;2023-11-19T08:47:34;11.70;99.90
6252;DHT22;3159;52.414;9.784;2023-11-19T08:50:01;11.70;99.90
6252;DHT22;3159;52.414;9.784;2023-11-19T08:52:29;11.70;99.90
6252;DHT22;3159;52.414;9.784;2023-11-19T08:54:56;11.70;99.90
6252;DHT22;3159;52.414;9.784;2023-11-19T08:57:23;11.70;99.90
6252;DHT22;3159;52.414;9.784;2023-11-19T08:59:49;11.80;99.90
6252;DHT22;3159;52.414;9.784;2023-11-19T09:02:16;12.20;99.90
6252;DHT22;3159;52.414;9.784;2023-11-19T09:04:45;12.30;99.90
6252;DHT22;3159;52.414;9.784;2023-11-19T09:07:12;12.20;99.90
6252;DHT22;3159;52.414;9.784;2023-11-19T09:09:38;12.10;99.90
6252;DHT22;3159;52.414;9.784;2023-11-19T09:12:06;12.00;99.90
6252;DHT22;3159;52.414;9.784;2023-11-19T09:14:33;12.00;99.90
6252;DHT22;3159;52.414;9.784;2023-11-19T09:17:00;11.90;99.90
6252;DHT22;3159;52.414;9.784;2023-11-19T09:19:27;12.10;99.90
6252;DHT22;3159;52.414;9.784;2023-11-19T09:21:55;12.00;99.90
6252;DHT22;3159;52.414;9.784;2023-11-19T09:24:22;12.00;99.90
6252;DHT22;3159;52.414;9.784;2023-11-19T09:26:49;12.10;99.90
6252;DHT22;3159;52.414;9.784;2023-11-19T09:29:15;12.00;99.90
6252;DHT22;3159;52.414;9.784;2023-11-19T09:31:42;12.10;99.90
6252;DHT22;3159;52.414;9.784;2023-11-19T09:34:09;12.10;99.90
6252;DHT22;3159;52.414;9.784;2023-11-19T09:36:36;12.10;99.90
6252;DHT22;3159;52.414;9.784;2023-11-19T09:39:04;12.30;99.90
6252;DHT22;3159;52.414;9.784;2023-11-19T09:41:33;12.30;99.90
6252;DHT22;3159;52.414;9.784;2023-11-19T09:44:00;12.50;99.90
6252;DHT22;3159;52.414;9.784;2023-11-19T09:46:28;12.80;99.90
6252;DHT22;3159;52.414;9.784;2023-11-19T09:48:56;12.90;99.90
6252;DHT22;3159;52.414;9.784;2023-11-19T09:51:25;13.00;99.90
6252;DHT22;3159;52.414;9.784;2023-11-19T09:53:52;12.80;99.90
6252;DHT22;3159;52.414;9.784;2023-11-19T09:56:20;12.60;99.90
6252;DHT22;3159;52.414;9.784;2023-11-19T09:58:47;12.80;99.90
6252;DHT22;3159;52.414;9.784;2023-11-19T10:01:14;12.70;99.90
6252;DHT22;3159;52.414;9.784;2023-11-19T10:03:42;12.80;99.90
6252;DHT22;3159;52.414;9.784;2023-11-19T10:06:10;12.90;99.90
6252;DHT22;3159;52.414;9.784;2023-11-19T10:08:37;13.10;99.90
6252;DHT22;3159;52.414;9.784;2023-11-19T10:11:05;13.00;99.90
6252;DHT22;3159;52.414;9.784;2023-11-19T10:13:35;12.90;99.90
6252;DHT22;3159;52.414;9.784;2023-11-19T10:16:04;12.60;99.90
6252;DHT22;3159;52.414;9.784;2023-11-19T10:18:33;12.60;99.90
6252;DHT22;3159;52.414;9.784;2023-11-19T10:21:04;12.60;99.90
6252;DHT22;3159;52.414;9.784;2023-11-19T10:23:31;12.60;99.90
6252;DHT22;3159;52.414;9.784;2023-11-19T10:26:03;12.70;99.90
6252;DHT22;3159;52.414;9.784;2023-11-19T10:28:40;12.60;99.90
6252;DHT22;3159;52.414;9.784;2023-11-19T10:31:09;12.80;99.90
6252;DHT22;3159;52.414;9.784;2023-11-19T10:33:36;12.50;99.90
6252;DHT22;3159;52.414;9.784;2023-11-19T10:36:03;12.60;99.90
6252;DHT22;3159;52.414;9.784;2023-11-19T10:38:30;12.60;99.90
6252;DHT22;3159;52.414;9.784;2023-11-19T10:40:57;12.60;99.90
6252;DHT22;3159;52.414;9.784;2023-11-19T10:43:24;12.60;99.90
6252;DHT22;3159;52.414;9.784;2023-11-19T10:45:53;12.40;99.90
6252;DHT22;3159;52.414;9.784;2023-11-19T10:48:19;12.60;99.90
6252;DHT22;3159;52.414;9.784;2023-11-19T10:50:52;12.50;99.90
6252;DHT22;3159;52.414;9.784;2023-11-19T10:53:20;12.50;99.90
6252;DHT22;3159;52.414;9.784;2023-11-19T10:55:48;12.50;99.90
6252;DHT22;3159;52.414;9.784;2023-11-19T10:58:16;12.50;99.90
6252;DHT22;3159;52.414;9.784;2023-11-19T11:00:44;12.60;99.90
6252;DHT22;3159;52.414;9.784;2023-11-19T11:03:17;12.60;99.90
6252;DHT22;3159;52.414;9.784;2023-11-19T11:05:46;12.60;99.90
6252;DHT22;3159;52.414;9.784;2023-11-19T11:08:14;12.70;99.90
6252;DHT22;3159;52.414;9.784;2023-11-19T11:10:44;12.70;99.90
6252;DHT22;3159;52.414;9.784;2023-11-19T11:13:13;12.70;99.90
6252;DHT22;3159;52.414;9.784;2023-11-19T11:15:40;12.70;99.90
6252;DHT22;3159;52.414;9.784;2023-11-19T11:18:09;12.90;99.90
6252;DHT22;3159;52.414;9.784;2023-11-19T11:20:37;12.90;99.90
6252;DHT22;3159;52.414;9.784;2023-11-19T11:23:29;12.80;99.90
6252;DHT22;3159;52.414;9.784;2023-11-19T11:26:15;12.90;99.90
6252;DHT22;3159;52.414;9.784;2023-11-19T11:28:52;12.90;99.90
6252;DHT22;3159;52.414;9.784;2023-11-19T11:31:31;12.90;99.90
6252;DHT22;3159;52.414;9.784;2023-11-19T11:34:19;12.80;99.90
6252;DHT22;3159;52.414;9.784;2023-11-19T11:37:00;12.70;99.90
6252;DHT22;3159;52.414;9.784;2023-11-19T11:39:30;12.70;99.90
6252;DHT22;3159;52.414;9.784;2023-11-19T11:42:34;12.70;99.90
6252;DHT22;3159;52.414;9.784;2023-11-19T11:45:03;12.70;99.90
6252;DHT22;3159;52.414;9.784;2023-11-19T11:48:11;12.60;99.90
6252;DHT22;3159;52.414;9.784;2023-11-19T11:50:52;12.60;99.90
6252;DHT22;3159;52.414;9.784;2023-11-19T11:53:21;12.70;99.90
6252;DHT22;3159;52.414;9.784;2023-11-19T11:55:56;12.70;99.90
6252;DHT22;3159;52.414;9.784;2023-11-19T11:58:42;12.60;99.90
6252;DHT22;3159;52.414;9.784;2023-11-19T12:01:15;12.60;99.90
6252;DHT22;3159;52.414;9.784;2023-11-19T12:03:46;12.60;99.90
6252;DHT22;3159;52.414;9.784;2023-11-19T12:06:13;12.70;99.90
6252;DHT22;3159;52.414;9.784;2023-11-19T12:08:41;12.70;99.90
6252;DHT22;3159;52.414;9.784;2023-11-19T12:11:08;12.80;99.90
6252;DHT22;3159;52.414;9.784;2023-11-19T12:13:53;12.70;99.90
6252;DHT22;3159;52.414;9.784;2023-11-19T12:16:21;12.70;99.90
6252;DHT22;3159;52.414;9.784;2023-11-19T12:18:49;12.70;99.90
6252;DHT22;3159;52.414;9.784;2023-11-19T12:21:29;12.70;99.90
6252;DHT22;3159;52.414;9.784;2023-11-19T12:23:58;12.70;99.90
6252;DHT22;3159;52.414;9.784;2023-11-19T12:26:37;12.80;99.90
6252;DHT22;3159;52.414;9.784;2023-11-19T12:29:04;12.80;99.90
6252;DHT22;3159;52.414;9.784;2023-11-19T12:31:33;12.80;99.90
6252;DHT22;3159;52.414;9.784;2023-11-19T12:34:09;12.70;99.90
6252;DHT22;3159;52.414;9.784;2023-11-19T12:36:38;12.70;99.90
6252;DHT22;3159;52.414;9.784;2023-11-19T12:39:07;12.60;99.90
6252;DHT22;3159;52.414;9.784;2023-11-19T12:41:49;12.70;99.90
6252;DHT22;3159;52.414;9.784;2023-11-19T12:44:16;12.70;99.90
6252;DHT22;3159;52.414;9.784;2023-11-19T12:46:43;12.80;99.90
6252;DHT22;3159;52.414;9.784;2023-11-19T12:49:11;12.80;99.90
6252;DHT22;3159;52.414;9.784;2023-11-19T12:51:38;12.70;99.90
6252;DHT22;3159;52.414;9.784;2023-11-19T12:54:06;12.70;99.90
6252;DHT22;3159;52.414;9.784;2023-11-19T12:56:33;12.70;99.90
6252;DHT22;3159;52.414;9.784;2023-11-19T12:59:10;12.70;99.90
6252;DHT22;3159;52.414;9.784;2023-11-19T13:01:37;12.60;99.90
6252;DHT22;3159;52.414;9.784;2023-11-19T13:04:16;12.60;99.90
6252;DHT22;3159;52.414;9.784;2023-11-19T13:06:45;12.70;99.90
6252;DHT22;3159;52.414;9.784;2023-11-19T13:09:23;12.60;99.90
6252;DHT22;3159;52.414;9.784;2023-11-19T13:11:51;12.60;99.90
6252;DHT22;3159;52.414;9.784;2023-11-19T13:14:18;12.70;99.90
6252;DHT22;3159;52.414;9.784;2023-11-19T13:16:46;12.70;99.90
6252;DHT22;3159;52.414;9.784;2023-11-19T13:19:13;12.60;99.90
6252;DHT22;3159;52.414;9.784;2023-11-19T13:21:41;12.60;99.90
6252;DHT22;3159;52.414;9.784;2023-11-19T13:24:09;12.60;99.90
6252;DHT22;3159;52.414;9.784;2023-11-19T13:26:37;12.60;99.90
6252;DHT22;3159;52.414;9.784;2023-11-19T13:29:04;12.50;99.90
6252;DHT22;3159;52.414;9.784;2023-11-19T13:31:31;12.60;99.90
6252;DHT22;3159;52.414;9.784;2023-11-19T13:33:58;12.60;99.90
6252;DHT22;3159;52.414;9.784;2023-11-19T13:36:25;12.70;99.90
6252;DHT22;3159;52.414;9.784;2023-11-19T13:38:52;12.70;99.90
6252;DHT22;3159;52.414;9.784;2023-11-19T13:41:24;12.80;99.90
6252;DHT22;3159;52.414;9.784;2023-11-19T13:43:52;12.80;99.90
6252;DHT22;3159;52.414;9.784;2023-11-19T13:46:20;12.70;99.90
6252;DHT22;3159;52.414;9.784;2023-11-19T13:48:47;12.60;99.90
6252;DHT22;3159;52.414;9.784;2023-11-19T13:51:15;12.60;99.90
6252;DHT22;3159;52.414;9.784;2023-11-19T13:53:42;12.60;99.90
6252;DHT22;3159;52.414;9.784;2023-11-19T13:56:09;12.50;99.90
6252;DHT22;3159;52.414;9.784;2023-11-19T13:58:36;12.60;99.90
6252;DHT22;3159;52.414;9.784;2023-11-19T14:01:05;12.60;99.90
6252;DHT22;3159;52.414;9.784;2023-11-19T14:03:32;12.60;99.90
6252;DHT22;3159;52.414;9.784;2023-11-19T14:05:59;12.60;99.90
6252;DHT22;3159;52.414;9.784;2023-11-19T14:08:26;12.60;99.90
6252;DHT22;3159;52.414;9.784;2023-11-19T14:10:53;12.60;99.90
6252;DHT22;3159;52.414;9.784;2023-11-19T14:13:21;12.60;99.90
6252;DHT22;3159;52.414;9.784;2023-11-19T14:15:49;12.60;99.90
6252;DHT22;3159;52.414;9.784;2023-11-19T14:18:17;12.70;99.90
6252;DHT22;3159;52.414;9.784;2023-11-19T14:20:44;12.50;99.90
6252;DHT22;3159;52.414;9.784;2023-11-19T14:23:11;12.50;99.90
6252;DHT22;3159;52.414;9.784;2023-11-19T14:25:38;12.60;99.90
6252;DHT22;3159;52.414;9.784;2023-11-19T14:28:05;12.60;99.90
6252;DHT22;3159;52.414;9.784;2023-11-19T14:30:33;12.60;99.90
6252;DHT22;3159;52.414;9.784;2023-11-19T14:33:00;12.60;99.90
6252;DHT22;3159;52.414;9.784;2023-11-19T14:35:28;12.70;99.90
6252;DHT22;3159;52.414;9.784;2023-11-19T14:37:55;12.70;99.90
6252;DHT22;3159;52.414;9.784;2023-11-19T14:40:22;12.60;99.90
6252;DHT22;3159;52.414;9.784;2023-11-19T14:42:49;12.60;99.90
6252;DHT22;3159;52.414;9.784;2023-11-19T14:45:16;12.60;99.90
6252;DHT22;3159;52.414;9.784;2023-11-19T14:47:43;12.70;99.90
6252;DHT22;3159;52.414;9.784;2023-11-19T14:50:10;12.60;99.90
6252;DHT22;3159;52.414;9.784;2023-11-19T14:52:39;12.60;99.90
6252;DHT22;3159;52.414;9.784;2023-11-19T14:55:06;12.50;99.90
6252;DHT22;3159;52.414;9.784;2023-11-19T14:57:35;12.50;99.90
6252;DHT22;3159;52.414;9.784;2023-11-19T15:00:05;12.40;99.90
6252;DHT22;3159;52.414;9.784;2023-11-19T15:02:38;12.20;99.90
6252;DHT22;3159;52.414;9.784;2023-11-19T15:05:06;12.10;99.90
6252;DHT22;3159;52.414;9.784;2023-11-19T15:07:35;12.10;99.90
6252;DHT22;3159;52.414;9.784;2023-11-19T15:10:04;12.10;99.90
6252;DHT22;3159;52.414;9.784;2023-11-19T15:12:35;12.00;99.90
6252;DHT22;3159;52.414;9.784;2023-11-19T15:15:06;12.10;99.90
6252;DHT22;3159;52.414;9.784;2023-11-19T15:17:33;12.10;99.90
6252;DHT22;3159;52.414;9.784;2023-11-19T15:20:01;12.10;99.90
6252;DHT22;3159;52.414;9.784;2023-11-19T15:22:28;12.10;99.90
6252;DHT22;3159;52.414;9.784;2023-11-19T15:24:57;12.00;99.90
6252;DHT22;3159;52.414;9.784;2023-11-19T15:27:25;12.00;99.90
6252;DHT22;3159;52.414;9.784;2023-11-19T15:29:52;12.00;99.90
6252;DHT22;3159;52.414;9.784;2023-11-19T15:32:19;12.10;99.90
6252;DHT22;3159;52.414;9.784;2023-11-19T15:34:46;12.10;99.90
6252;DHT22;3159;52.414;9.784;2023-11-19T15:37:12;12.10;99.90
6252;DHT22;3159;52.414;9.784;2023-11-19T15:39:40;12.10;99.90
6252;DHT22;3159;52.414;9.784;2023-11-19T15:42:07;12.00;99.90
6252;DHT22;3159;52.414;9.784;2023-11-19T15:44:37;12.00;99.90
6252;DHT22;3159;52.414;9.784;2023-11-19T15:47:04;12.00;99.90
6252;DHT22;3159;52.414;9.784;2023-11-19T15:49:31;11.90;99.90
6252;DHT22;3159;52.414;9.784;2023-11-19T15:51:58;11.90;99.90
6252;DHT22;3159;52.414;9.784;2023-11-19T15:54:25;11.90;99.90
6252;DHT22;3159;52.414;9.784;2023-11-19T15:56:52;12.00;99.90
6252;DHT22;3159;52.414;9.784;2023-11-19T15:59:18;12.00;99.90
6252;DHT22;3159;52.414;9.784;2023-11-19T16:01:47;11.90;99.90
6252;DHT22;3159;52.414;9.784;2023-11-19T16:04:14;11.90;99.90
6252;DHT22;3159;52.414;9.784;2023-11-19T16:06:41;12.00;99.90
6252;DHT22;3159;52.414;9.784;2023-11-19T16:09:08;12.00;99.90
6252;DHT22;3159;52.414;9.784;2023-11-19T16:11:40;12.00;99.90
6252;DHT22;3159;52.414;9.784;2023-11-19T16:14:09;12.00;99.90